createdAt,value
2022-08-16T00:00:48.093Z,0.00
2022-08-16T00:01:47.388Z,0.00
2022-08-16T00:02:47.731Z,0.00
2022-08-16T00:03:47.778Z,0.00
2022-08-16T00:04:48.017Z,0.00
2022-08-16T00:05:49.113Z,0.00
2022-08-16T00:06:49.463Z,0.00
2022-08-16T00:07:48.678Z,0.00
2022-08-16T00:08:49.860Z,0.00
2022-08-16T00:09:49.077Z,0.00
2022-08-16T00:10:49.308Z,0.00
2022-08-16T00:11:52.701Z,0.00
2022-08-16T00:12:50.729Z,0.00
2022-08-16T00:13:54.222Z,0.00
2022-08-16T00:14:51.107Z,0.00
2022-08-16T00:15:54.136Z,0.00
2022-08-16T00:17:06.680Z,0.00
2022-08-16T00:17:57.065Z,0.00
2022-08-16T00:18:52.215Z,0.00
2022-08-16T00:19:53.479Z,0.00
2022-08-16T00:20:51.631Z,0.00
2022-08-16T00:21:53.244Z,0.00
2022-08-16T00:22:52.016Z,0.00
2022-08-16T00:23:52.308Z,0.00
2022-08-16T00:24:52.435Z,0.00
2022-08-16T00:26:35.104Z,0.00
2022-08-16T00:26:53.858Z,0.00
2022-08-16T00:27:53.112Z,0.00
2022-08-16T00:28:54.935Z,0.00
2022-08-16T00:30:08.512Z,0.00
2022-08-16T00:30:54.760Z,0.00
2022-08-16T00:32:01.470Z,0.00
2022-08-16T00:32:57.255Z,0.00
2022-08-16T00:33:54.510Z,0.00
2022-08-16T00:34:54.737Z,0.00
2022-08-16T00:35:56.040Z,0.00
2022-08-16T00:36:55.958Z,0.00
2022-08-16T00:37:58.252Z,0.00
2022-08-16T00:38:56.304Z,0.00
2022-08-16T00:39:58.476Z,0.00
2022-08-16T00:40:56.286Z,0.00
2022-08-16T00:41:56.525Z,0.00
2022-08-16T00:42:56.772Z,0.00
2022-08-16T00:43:57.014Z,0.00
2022-08-16T00:44:57.228Z,0.00
2022-08-16T00:45:59.911Z,0.00
2022-08-16T00:47:06.188Z,0.00
2022-08-16T00:47:58.895Z,0.00
2022-08-16T00:48:58.120Z,0.00
2022-08-16T00:49:58.366Z,0.00
2022-08-16T00:50:58.610Z,0.00
2022-08-16T00:51:58.791Z,0.00
2022-08-16T00:52:59.304Z,0.00
2022-08-16T00:53:59.317Z,0.00
2022-08-16T00:54:59.620Z,0.00
2022-08-16T00:55:59.818Z,0.00
2022-08-16T00:57:00.363Z,0.00
2022-08-16T00:58:00.885Z,0.00
2022-08-16T00:59:01.401Z,0.00
2022-08-16T01:00:01.036Z,0.00
2022-08-16T01:01:01.000Z,0.00
2022-08-16T01:02:01.219Z,0.00
2022-08-16T01:03:02.522Z,0.00
2022-08-16T01:04:01.751Z,0.00
2022-08-16T01:05:10.812Z,0.00
2022-08-16T01:06:32.663Z,0.00
2022-08-16T01:07:03.464Z,0.00
2022-08-16T01:08:02.678Z,0.00
2022-08-16T01:09:03.841Z,0.00
2022-08-16T01:10:03.089Z,0.00
2022-08-16T01:11:04.388Z,0.00
2022-08-16T01:12:03.577Z,0.00
2022-08-16T01:13:04.597Z,0.00
2022-08-16T01:14:04.050Z,0.00
2022-08-16T01:15:04.273Z,0.00
2022-08-16T01:16:04.500Z,0.00
2022-08-16T01:17:08.409Z,0.00
2022-08-16T01:18:05.002Z,0.00
2022-08-16T01:19:05.164Z,0.00
2022-08-16T01:20:24.497Z,0.00
2022-08-16T01:21:06.559Z,0.00
2022-08-16T01:22:49.828Z,0.00
2022-08-16T01:23:08.560Z,0.00
2022-08-16T01:24:06.153Z,0.00
2022-08-16T01:25:07.341Z,0.00
2022-08-16T01:26:34.298Z,0.00
2022-08-16T01:27:07.793Z,0.00
2022-08-16T01:28:07.027Z,0.00
2022-08-16T01:29:09.856Z,0.00
2022-08-16T01:30:20.584Z,0.00
2022-08-16T01:31:08.672Z,0.00
2022-08-16T01:32:09.213Z,0.00
2022-08-16T01:33:15.026Z,0.00
2022-08-16T01:34:09.391Z,0.00
2022-08-16T01:35:16.749Z,0.00
2022-08-16T01:36:12.293Z,0.00
2022-08-16T01:37:09.086Z,0.00
2022-08-16T01:38:09.195Z,0.00
2022-08-16T01:39:11.634Z,0.00
2022-08-16T01:40:09.682Z,0.00
2022-08-16T01:41:09.800Z,0.00
2022-08-16T01:42:13.093Z,0.00
2022-08-16T01:43:10.305Z,0.00
2022-08-16T01:44:10.573Z,0.00
2022-08-16T01:45:10.801Z,0.00
2022-08-16T01:46:37.684Z,0.00
2022-08-16T01:47:12.343Z,0.00
2022-08-16T01:48:19.547Z,0.00
2022-08-16T01:49:12.772Z,0.00
2022-08-16T01:50:42.407Z,0.00
2022-08-16T01:51:16.969Z,0.00
2022-08-16T01:52:27.755Z,0.00
2022-08-16T01:53:13.600Z,0.00
2022-08-16T01:54:13.253Z,0.00
2022-08-16T01:55:13.013Z,0.00
2022-08-16T01:56:24.946Z,0.00
2022-08-16T01:57:14.465Z,0.00
2022-08-16T01:58:13.709Z,0.00
2022-08-16T01:59:15.705Z,0.00
2022-08-16T02:00:14.119Z,0.00
2022-08-16T02:01:15.334Z,0.00
2022-08-16T02:02:27.438Z,0.00
2022-08-16T02:03:15.703Z,0.00
2022-08-16T02:04:14.943Z,0.00
2022-08-16T02:05:16.116Z,0.00
2022-08-16T02:06:15.341Z,0.00
2022-08-16T02:07:16.520Z,0.00
2022-08-16T02:08:33.857Z,0.00
2022-08-16T02:09:17.753Z,0.00
2022-08-16T02:10:16.247Z,0.00
2022-08-16T02:11:16.480Z,0.00
2022-08-16T02:12:49.559Z,0.00
2022-08-16T02:13:18.008Z,0.00
2022-08-16T02:14:17.943Z,0.00
2022-08-16T02:15:17.430Z,0.00
2022-08-16T02:16:19.088Z,0.00
2022-08-16T02:17:17.949Z,0.00
2022-08-16T02:18:18.653Z,0.00
2022-08-16T02:19:18.611Z,0.00
2022-08-16T02:20:18.633Z,0.00
2022-08-16T02:21:31.045Z,0.00
2022-08-16T02:22:35.822Z,0.00
2022-08-16T02:23:20.300Z,0.00
2022-08-16T02:24:32.704Z,0.00
2022-08-16T02:25:20.708Z,0.00
2022-08-16T02:26:19.937Z,0.00
2022-08-16T02:27:20.181Z,0.00
2022-08-16T02:28:20.401Z,0.00
2022-08-16T02:29:20.883Z,0.00
2022-08-16T02:30:35.805Z,0.00
2022-08-16T02:31:21.988Z,0.00
2022-08-16T02:32:49.932Z,0.00
2022-08-16T02:33:24.311Z,0.00
2022-08-16T02:34:21.646Z,0.00
2022-08-16T02:35:23.230Z,0.00
2022-08-16T02:36:48.032Z,0.00
2022-08-16T02:37:23.277Z,0.00
2022-08-16T02:38:22.507Z,0.00
2022-08-16T02:39:23.118Z,0.00
2022-08-16T02:40:22.939Z,0.00
2022-08-16T02:41:23.182Z,0.00
2022-08-16T02:42:23.396Z,0.00
2022-08-16T02:43:26.933Z,0.00
2022-08-16T02:44:26.983Z,0.00
2022-08-16T02:45:24.687Z,0.00
2022-08-16T02:46:30.194Z,0.00
2022-08-16T02:47:25.832Z,0.00
2022-08-16T02:48:29.928Z,0.00
2022-08-16T02:50:52.610Z,0.00
2022-08-16T02:50:53.545Z,0.00
2022-08-16T02:51:26.414Z,0.00
2022-08-16T02:52:29.161Z,0.00
2022-08-16T02:53:25.835Z,0.00
2022-08-16T02:54:26.076Z,0.00
2022-08-16T02:55:40.760Z,0.00
2022-08-16T02:56:32.161Z,0.00
2022-08-16T02:57:27.882Z,0.00
2022-08-16T02:58:27.045Z,0.00
2022-08-16T02:59:27.311Z,0.00
2022-08-16T03:00:33.632Z,0.00
2022-08-16T03:01:37.237Z,0.00
2022-08-16T03:02:32.023Z,0.00
2022-08-16T03:04:39.640Z,0.00
2022-08-16T03:04:50.281Z,0.00
2022-08-16T03:05:30.896Z,0.00
2022-08-16T03:06:41.392Z,0.00
2022-08-16T03:07:30.145Z,0.00
2022-08-16T03:08:50.787Z,0.00
2022-08-16T03:09:32.682Z,0.00
2022-08-16T03:10:33.578Z,0.00
2022-08-16T03:11:35.591Z,0.00
2022-08-16T03:12:36.744Z,0.00
2022-08-16T03:13:31.367Z,0.00
2022-08-16T03:14:31.544Z,0.00
2022-08-16T03:15:30.843Z,0.00
2022-08-16T03:16:37.591Z,0.00
2022-08-16T03:17:32.454Z,0.00
2022-08-16T03:18:34.190Z,0.00
2022-08-16T03:19:46.815Z,4.00
2022-08-16T03:20:34.283Z,4.00
2022-08-16T03:21:37.686Z,4.00
2022-08-16T03:22:33.377Z,0.00
2022-08-16T03:23:35.888Z,4.00
2022-08-16T03:24:32.984Z,4.00
2022-08-16T03:25:40.861Z,4.00
2022-08-16T03:26:34.483Z,8.00
2022-08-16T03:27:33.678Z,4.00
2022-08-16T03:28:33.903Z,8.00
2022-08-16T03:29:34.260Z,12.00
2022-08-16T03:30:34.497Z,12.00
2022-08-16T03:31:40.500Z,12.00
2022-08-16T03:32:35.902Z,16.00
2022-08-16T03:33:35.133Z,16.00
2022-08-16T03:34:35.374Z,20.00
2022-08-16T03:35:35.602Z,24.00
2022-08-16T03:36:35.823Z,28.00
2022-08-16T03:37:49.060Z,32.00
2022-08-16T03:38:37.276Z,36.00
2022-08-16T03:39:42.886Z,40.00
2022-08-16T03:40:37.733Z,48.00
2022-08-16T03:41:50.715Z,52.00
2022-08-16T03:43:00.420Z,56.00
2022-08-16T03:43:51.949Z,68.00
2022-08-16T03:44:44.515Z,76.00
2022-08-16T03:45:38.892Z,80.00
2022-08-16T03:46:48.116Z,92.00
2022-08-16T03:48:51.510Z,116.00
2022-08-16T03:49:52.438Z,128.00
2022-08-16T03:51:00.036Z,144.00
2022-08-16T03:51:52.944Z,156.00
2022-08-16T03:52:52.787Z,168.00
2022-08-16T03:54:00.947Z,180.00
2022-08-16T03:54:57.897Z,196.00
2022-08-16T03:55:53.438Z,212.00
2022-08-16T03:56:57.152Z,228.00
2022-08-16T03:57:55.588Z,240.00
2022-08-16T03:58:52.856Z,256.00
2022-08-16T03:59:53.017Z,272.00
2022-08-16T04:00:56.926Z,292.00
2022-08-16T04:01:54.288Z,312.00
2022-08-16T04:02:53.437Z,328.00
2022-08-16T04:03:55.189Z,348.00
2022-08-16T04:04:53.702Z,368.00
2022-08-16T04:05:54.112Z,388.00
2022-08-16T04:06:53.958Z,408.00
2022-08-16T04:07:54.112Z,428.00
2022-08-16T04:08:54.268Z,452.00
2022-08-16T04:09:54.436Z,472.00
2022-08-16T04:10:54.919Z,496.00
2022-08-16T04:11:54.755Z,520.00
2022-08-16T04:13:00.630Z,540.00
2022-08-16T04:14:01.060Z,568.00
2022-08-16T04:14:56.100Z,592.00
2022-08-16T04:15:55.256Z,616.00
2022-08-16T04:16:55.439Z,644.00
2022-08-16T04:17:55.594Z,668.00
2022-08-16T04:19:01.335Z,692.00
2022-08-16T04:19:58.102Z,720.00
2022-08-16T04:20:56.392Z,744.00
2022-08-16T04:21:56.826Z,768.00
2022-08-16T04:22:56.345Z,792.00
2022-08-16T04:23:56.505Z,820.00
2022-08-16T04:24:59.493Z,844.00
2022-08-16T04:25:56.851Z,868.00
2022-08-16T04:26:57.961Z,896.00
2022-08-16T04:27:57.106Z,924.00
2022-08-16T04:29:16.350Z,952.00
2022-08-16T04:30:02.916Z,984.00
2022-08-16T04:30:58.673Z,1008.00
2022-08-16T04:31:58.318Z,1036.00
2022-08-16T04:32:57.947Z,1068.00
2022-08-16T04:33:58.120Z,1096.00
2022-08-16T04:34:59.530Z,1124.00
2022-08-16T04:35:58.427Z,1152.00
2022-08-16T04:36:58.584Z,1180.00
2022-08-16T04:37:58.742Z,1208.00
2022-08-16T04:38:58.911Z,1236.00
2022-08-16T04:39:59.049Z,1264.00
2022-08-16T04:40:59.097Z,1292.00
2022-08-16T04:41:59.213Z,1324.00
2022-08-16T04:43:00.319Z,1348.00
2022-08-16T04:43:59.476Z,1380.00
2022-08-16T04:45:02.002Z,1408.00
2022-08-16T04:46:00.779Z,1436.00
2022-08-16T04:47:01.027Z,1464.00
2022-08-16T04:48:00.047Z,1500.00
2022-08-16T04:49:00.186Z,1528.00
2022-08-16T04:50:00.797Z,1552.00
2022-08-16T04:51:00.506Z,1584.00
2022-08-16T04:52:00.688Z,1608.00
2022-08-16T04:53:00.814Z,1640.00
2022-08-16T04:54:00.983Z,1672.00
2022-08-16T04:55:01.125Z,1704.00
2022-08-16T04:56:01.308Z,1732.00
2022-08-16T04:57:01.471Z,1764.00
2022-08-16T04:58:01.583Z,1788.00
2022-08-16T04:59:02.709Z,1816.00
2022-08-16T05:00:32.717Z,1848.00
2022-08-16T05:01:02.982Z,1876.00
2022-08-16T05:02:03.157Z,1904.00
2022-08-16T05:03:07.571Z,1932.00
2022-08-16T05:04:03.424Z,1952.00
2022-08-16T05:05:02.573Z,1972.00
2022-08-16T05:06:04.982Z,1996.00
2022-08-16T05:07:02.934Z,2016.00
2022-08-16T05:08:27.967Z,2036.00
2022-08-16T05:09:04.127Z,2060.00
2022-08-16T05:10:03.287Z,2092.00
2022-08-16T05:11:05.469Z,2128.00
2022-08-16T05:12:03.621Z,2164.00
2022-08-16T05:13:03.805Z,2200.00
2022-08-16T05:14:06.873Z,2236.00
2022-08-16T05:15:04.075Z,2284.00
2022-08-16T05:16:04.233Z,2328.00
2022-08-16T05:17:04.363Z,2360.00
2022-08-16T05:18:04.577Z,2384.00
2022-08-16T05:19:04.724Z,2400.00
2022-08-16T05:20:38.906Z,2420.00
2022-08-16T05:21:10.950Z,2440.00
2022-08-16T05:22:06.055Z,2472.00
2022-08-16T05:23:06.383Z,2500.00
2022-08-16T05:24:06.146Z,2532.00
2022-08-16T05:25:08.832Z,2572.00
2022-08-16T05:26:05.733Z,2604.00
2022-08-16T05:27:11.430Z,2632.00
2022-08-16T05:28:06.950Z,2664.00
2022-08-16T05:29:06.123Z,2688.00
2022-08-16T05:30:34.851Z,2744.00
2022-08-16T05:31:07.379Z,2780.00
2022-08-16T05:32:33.722Z,2808.00
2022-08-16T05:33:08.875Z,2852.00
2022-08-16T05:34:17.784Z,2880.00
2022-08-16T05:35:10.817Z,2900.00
2022-08-16T05:36:14.088Z,2932.00
2022-08-16T05:37:08.161Z,2968.00
2022-08-16T05:38:32.407Z,3008.00
2022-08-16T05:39:08.637Z,3056.00
2022-08-16T05:40:07.677Z,3092.00
2022-08-16T05:41:09.340Z,3136.00
2022-08-16T05:42:07.896Z,3172.00
2022-08-16T05:43:08.057Z,3216.00
2022-08-16T05:44:22.533Z,3244.00
2022-08-16T05:45:09.319Z,3268.00
2022-08-16T05:46:28.711Z,3284.00
2022-08-16T05:47:09.575Z,3292.00
2022-08-16T05:48:09.672Z,3296.00
2022-08-16T05:49:09.510Z,3320.00
2022-08-16T05:50:08.910Z,3348.00
2022-08-16T05:51:10.000Z,3388.00
2022-08-16T05:52:11.761Z,3452.00
2022-08-16T05:53:09.951Z,3500.00
2022-08-16T05:54:11.145Z,3536.00
2022-08-16T05:55:09.647Z,3580.00
2022-08-16T05:56:09.730Z,3636.00
2022-08-16T05:57:13.473Z,3676.00
2022-08-16T05:58:09.978Z,3696.00
2022-08-16T05:59:11.115Z,3728.00
2022-08-16T06:00:10.320Z,3760.00
2022-08-16T06:01:10.395Z,3796.00
2022-08-16T06:02:10.438Z,3836.00
2022-08-16T06:03:13.171Z,3860.00
2022-08-16T06:04:12.916Z,3896.00
2022-08-16T06:05:11.147Z,3948.00
2022-08-16T06:06:10.953Z,3992.00
2022-08-16T06:07:24.356Z,4020.00
2022-08-16T06:08:32.153Z,4036.00
2022-08-16T06:09:12.258Z,4068.00
2022-08-16T06:10:11.393Z,4108.00
2022-08-16T06:11:13.443Z,4136.00
2022-08-16T06:12:11.679Z,4168.00
2022-08-16T06:13:11.847Z,4216.00
2022-08-16T06:14:13.135Z,4268.00
2022-08-16T06:15:12.094Z,4328.00
2022-08-16T06:16:18.046Z,4372.00
2022-08-16T06:17:13.446Z,4404.00
2022-08-16T06:18:13.556Z,4428.00
2022-08-16T06:19:12.615Z,4428.00
2022-08-16T06:20:12.805Z,4496.00
2022-08-16T06:21:12.934Z,4604.00
2022-08-16T06:22:37.657Z,4656.00
2022-08-16T06:23:17.589Z,4688.00
2022-08-16T06:24:53.345Z,4704.00
2022-08-16T06:25:19.688Z,4764.00
2022-08-16T06:26:14.416Z,4824.00
2022-08-16T06:27:13.565Z,4880.00
2022-08-16T06:28:16.681Z,4924.00
2022-08-16T06:29:13.824Z,4936.00
2022-08-16T06:30:14.014Z,4960.00
2022-08-16T06:31:15.155Z,5016.00
2022-08-16T06:32:27.846Z,5060.00
2022-08-16T06:33:19.878Z,5100.00
2022-08-16T06:34:56.081Z,5140.00
2022-08-16T06:35:15.565Z,5192.00
2022-08-16T06:36:14.899Z,5228.00
2022-08-16T06:37:14.794Z,5260.00
2022-08-16T06:38:33.790Z,5308.00
2022-08-16T06:39:16.005Z,5352.00
2022-08-16T06:40:15.787Z,5416.00
2022-08-16T06:41:15.332Z,5472.00
2022-08-16T06:42:18.388Z,5524.00
2022-08-16T06:43:15.562Z,5588.00
2022-08-16T06:44:21.519Z,5640.00
2022-08-16T06:45:17.423Z,5696.00
2022-08-16T06:46:15.996Z,5748.00
2022-08-16T06:47:16.837Z,5804.00
2022-08-16T06:48:18.885Z,5884.00
2022-08-16T06:49:16.239Z,5996.00
2022-08-16T06:50:22.150Z,6072.00
2022-08-16T06:51:17.455Z,6144.00
2022-08-16T06:52:59.615Z,6212.00
2022-08-16T06:53:18.087Z,6340.00
2022-08-16T06:54:16.834Z,6596.00
2022-08-16T06:55:17.822Z,7292.00
2022-08-16T06:56:23.157Z,13068.00
2022-08-16T06:57:18.158Z,22016.00
2022-08-16T06:58:22.848Z,24224.00
2022-08-16T06:59:18.266Z,15872.00
2022-08-16T07:00:24.169Z,9100.00
2022-08-16T07:01:23.032Z,12628.00
2022-08-16T07:02:33.052Z,12968.00
2022-08-16T07:03:27.601Z,6780.00
2022-08-16T07:04:32.704Z,6704.00
2022-08-16T07:05:18.822Z,7088.00
2022-08-16T07:06:17.926Z,7768.00
2022-08-16T07:07:17.966Z,7920.00
2022-08-16T07:08:18.093Z,7660.00
2022-08-16T07:09:18.235Z,7588.00
2022-08-16T07:10:18.278Z,7676.00
2022-08-16T07:11:18.405Z,7768.00
2022-08-16T07:12:18.494Z,7676.00
2022-08-16T07:13:43.945Z,7588.00
2022-08-16T07:14:24.432Z,7336.00
2022-08-16T07:15:19.836Z,7388.00
2022-08-16T07:16:20.585Z,7372.00
2022-08-16T07:17:18.947Z,7384.00
2022-08-16T07:18:19.059Z,7400.00
2022-08-16T07:19:19.473Z,7444.00
2022-08-16T07:20:35.454Z,7512.00
2022-08-16T07:21:20.371Z,7600.00
2022-08-16T07:22:37.965Z,7784.00
2022-08-16T07:23:21.438Z,7808.00
2022-08-16T07:24:30.581Z,7880.00
2022-08-16T07:25:20.675Z,7944.00
2022-08-16T07:26:24.871Z,7960.00
2022-08-16T07:27:20.803Z,8032.00
2022-08-16T07:28:21.001Z,8004.00
2022-08-16T07:29:20.045Z,8068.00
2022-08-16T07:30:39.543Z,8104.00
2022-08-16T07:31:21.132Z,8180.00
2022-08-16T07:32:20.286Z,8240.00
2022-08-16T07:33:51.311Z,8340.00
2022-08-16T07:34:35.685Z,8508.00
2022-08-16T07:35:21.456Z,8840.00
2022-08-16T07:36:21.679Z,9708.00
2022-08-16T07:37:23.244Z,16704.00
2022-08-16T07:38:31.842Z,15776.00
2022-08-16T07:39:21.984Z,14552.00
2022-08-16T07:40:31.833Z,15968.00
2022-08-16T07:41:21.966Z,15808.00
2022-08-16T07:42:28.369Z,13072.00
2022-08-16T07:43:22.149Z,12840.00
2022-08-16T07:44:21.273Z,10696.00
2022-08-16T07:45:21.359Z,9924.00
2022-08-16T07:46:38.470Z,9700.00
2022-08-16T07:47:24.722Z,9820.00
2022-08-16T07:48:22.581Z,11332.00
2022-08-16T07:49:22.679Z,16480.00
2022-08-16T07:50:56.213Z,13316.00
2022-08-16T07:51:22.686Z,24032.00
2022-08-16T07:52:21.802Z,30304.00
2022-08-16T07:53:21.900Z,36064.00
2022-08-16T07:54:32.249Z,41152.00
2022-08-16T07:55:23.107Z,42144.00
2022-08-16T07:56:22.082Z,42656.00
2022-08-16T07:57:24.511Z,40288.00
2022-08-16T07:58:34.765Z,21696.00
2022-08-16T07:59:23.286Z,13580.00
2022-08-16T08:00:22.399Z,12136.00
2022-08-16T08:01:22.464Z,10940.00
2022-08-16T08:02:22.471Z,10536.00
2022-08-16T08:03:23.649Z,10640.00
2022-08-16T08:04:23.559Z,10656.00
2022-08-16T08:05:25.291Z,10804.00
2022-08-16T08:06:24.772Z,11004.00
2022-08-16T08:07:23.014Z,11340.00
2022-08-16T08:08:49.128Z,12408.00
2022-08-16T08:09:23.850Z,15136.00
2022-08-16T08:10:29.292Z,21472.00
2022-08-16T08:11:24.076Z,32032.00
2022-08-16T08:12:32.694Z,25888.00
2022-08-16T08:13:41.990Z,50560.00
2022-08-16T08:14:29.809Z,15072.00
2022-08-16T08:15:25.446Z,51936.00
2022-08-16T08:16:30.658Z,52800.00
2022-08-16T08:17:24.221Z,54368.00
2022-08-16T08:18:30.347Z,54464.00
2022-08-16T08:19:24.372Z,55360.00
2022-08-16T08:20:27.852Z,56864.00
2022-08-16T08:21:26.218Z,60320.00
2022-08-16T08:22:23.371Z,61216.00
2022-08-16T08:23:23.469Z,60480.00
2022-08-16T08:24:31.687Z,61984.00
2022-08-16T08:25:24.541Z,61440.00
2022-08-16T08:26:24.302Z,65696.00
2022-08-16T08:27:23.900Z,65632.00
2022-08-16T08:28:23.734Z,65248.00
2022-08-16T08:29:24.762Z,64576.00
2022-08-16T08:30:51.694Z,65440.00
2022-08-16T08:31:24.863Z,65600.00
2022-08-16T08:32:58.459Z,66496.00
2022-08-16T08:33:24.852Z,67168.00
2022-08-16T08:34:23.859Z,66400.00
2022-08-16T08:35:24.404Z,65888.00
2022-08-16T08:36:23.923Z,65792.00
2022-08-16T08:37:24.922Z,64992.00
2022-08-16T08:38:45.101Z,65184.00
2022-08-16T08:39:24.941Z,64032.00
2022-08-16T08:40:24.711Z,64352.00
2022-08-16T08:41:28.305Z,65824.00
2022-08-16T08:42:26.576Z,65984.00
2022-08-16T08:43:23.955Z,37792.00
2022-08-16T08:44:29.087Z,43776.00
2022-08-16T08:45:46.964Z,13664.00
2022-08-16T08:46:25.036Z,15264.00
2022-08-16T08:47:24.131Z,14868.00
2022-08-16T08:48:33.570Z,14728.00
2022-08-16T08:49:46.176Z,14880.00
2022-08-16T08:50:31.984Z,14940.00
2022-08-16T08:51:25.054Z,14388.00
2022-08-16T08:52:34.868Z,16992.00
2022-08-16T08:53:29.948Z,24608.00
2022-08-16T08:54:25.084Z,29312.00
2022-08-16T08:55:24.078Z,60256.00
2022-08-16T08:56:25.328Z,75872.00
2022-08-16T08:57:24.034Z,60576.00
2022-08-16T08:58:23.991Z,69792.00
2022-08-16T08:59:24.963Z,64416.00
2022-08-16T09:00:26.867Z,62848.00
2022-08-16T09:01:31.841Z,65952.00
2022-08-16T09:02:24.956Z,66208.00
2022-08-16T09:03:23.971Z,65088.00
2022-08-16T09:04:24.056Z,60896.00
2022-08-16T09:05:23.955Z,65760.00
2022-08-16T09:06:24.924Z,64736.00
2022-08-16T09:07:23.995Z,66784.00
2022-08-16T09:08:26.553Z,67744.00
2022-08-16T09:09:23.923Z,69120.00
2022-08-16T09:10:24.027Z,70816.00
2022-08-16T09:11:40.827Z,70336.00
2022-08-16T09:12:36.587Z,68768.00
2022-08-16T09:13:24.866Z,70336.00
2022-08-16T09:14:25.014Z,69216.00
2022-08-16T09:15:24.139Z,68320.00
2022-08-16T09:17:02.819Z,70912.00
2022-08-16T09:17:54.920Z,71168.00
2022-08-16T09:18:26.851Z,70592.00
2022-08-16T09:19:33.184Z,70400.00
2022-08-16T09:20:25.407Z,71776.00
2022-08-16T09:21:31.453Z,69248.00
2022-08-16T09:22:24.631Z,67136.00
2022-08-16T09:23:23.657Z,65216.00
2022-08-16T09:24:48.803Z,64896.00
2022-08-16T09:25:26.378Z,65088.00
2022-08-16T09:26:45.522Z,66400.00
2022-08-16T09:27:25.213Z,66304.00
2022-08-16T09:29:13.634Z,65600.00
2022-08-16T09:29:44.691Z,67872.00
2022-08-16T09:30:34.333Z,65184.00
2022-08-16T09:31:24.629Z,62720.00
2022-08-16T09:32:28.737Z,66752.00
2022-08-16T09:33:25.247Z,65120.00
2022-08-16T09:34:23.424Z,65856.00
2022-08-16T09:35:23.430Z,68608.00
2022-08-16T09:36:32.073Z,68928.00
2022-08-16T09:37:29.701Z,67680.00
2022-08-16T09:38:32.025Z,64992.00
2022-08-16T09:39:24.299Z,67392.00
2022-08-16T09:40:33.048Z,67904.00
2022-08-16T09:41:24.176Z,65440.00
2022-08-16T09:42:23.167Z,67136.00
2022-08-16T09:43:53.236Z,67680.00
2022-08-16T09:45:09.238Z,66464.00
2022-08-16T09:45:24.099Z,69888.00
2022-08-16T09:46:44.444Z,70976.00
2022-08-16T09:47:24.077Z,72320.00
2022-08-16T09:48:44.194Z,71904.00
2022-08-16T09:49:24.097Z,73792.00
2022-08-16T09:50:23.308Z,74144.00
2022-08-16T09:51:23.437Z,76544.00
2022-08-16T09:52:22.995Z,74720.00
2022-08-16T09:53:22.994Z,76960.00
2022-08-16T09:54:22.982Z,71904.00
2022-08-16T09:55:22.972Z,72224.00
2022-08-16T09:56:22.891Z,71904.00
2022-08-16T09:57:22.899Z,72416.00
2022-08-16T09:58:41.461Z,62144.00
2022-08-16T09:59:23.930Z,67680.00
2022-08-16T10:00:42.644Z,69856.00
2022-08-16T10:01:23.757Z,76704.00
2022-08-16T10:02:25.883Z,77504.00
2022-08-16T10:03:22.683Z,81728.00
2022-08-16T10:04:31.698Z,77056.00
2022-08-16T10:05:23.576Z,79968.00
2022-08-16T10:06:22.568Z,79360.00
2022-08-16T10:07:22.551Z,70656.00
2022-08-16T10:08:26.307Z,77408.00
2022-08-16T10:09:22.489Z,78368.00
2022-08-16T10:10:30.518Z,78208.00
2022-08-16T10:11:24.624Z,77536.00
2022-08-16T10:12:22.259Z,79328.00
2022-08-16T10:13:22.256Z,78112.00
2022-08-16T10:14:24.849Z,83040.00
2022-08-16T10:15:23.172Z,77536.00
2022-08-16T10:16:22.347Z,78272.00
2022-08-16T10:17:22.051Z,72672.00
2022-08-16T10:19:01.033Z,74752.00
2022-08-16T10:19:22.959Z,75904.00
2022-08-16T10:20:21.942Z,78944.00
2022-08-16T10:21:23.492Z,79936.00
2022-08-16T10:22:23.036Z,84160.00
2022-08-16T10:23:21.846Z,78944.00
2022-08-16T10:24:28.034Z,77536.00
2022-08-16T10:27:19.333Z,80224.00
2022-08-16T10:27:20.234Z,77664.00
2022-08-16T10:27:26.752Z,79584.00
2022-08-16T10:28:32.060Z,57088.00
2022-08-16T10:29:22.514Z,14532.00
2022-08-16T10:30:28.569Z,17440.00
2022-08-16T10:31:45.529Z,18816.00
2022-08-16T10:32:22.348Z,76640.00
2022-08-16T10:33:21.310Z,80128.00
2022-08-16T10:34:30.932Z,78944.00
2022-08-16T10:35:22.830Z,78272.00
2022-08-16T10:36:38.982Z,81248.00
2022-08-16T10:37:32.774Z,80320.00
2022-08-16T10:38:27.280Z,81248.00
2022-08-16T10:39:21.972Z,77696.00
2022-08-16T10:40:29.955Z,34112.00
2022-08-16T10:41:25.163Z,72736.00
2022-08-16T10:42:20.812Z,78240.00
2022-08-16T10:43:20.803Z,79680.00
2022-08-16T10:44:20.819Z,77312.00
2022-08-16T10:45:20.835Z,81888.00
2022-08-16T10:46:33.917Z,83552.00
2022-08-16T10:47:21.701Z,78144.00
2022-08-16T10:48:27.448Z,78016.00
2022-08-16T10:49:21.497Z,14940.00
2022-08-16T10:50:20.562Z,16992.00
2022-08-16T10:51:20.395Z,35904.00
2022-08-16T10:52:21.349Z,60896.00
2022-08-16T10:53:21.726Z,51680.00
2022-08-16T10:54:29.608Z,14240.00
2022-08-16T10:56:52.878Z,12628.00
2022-08-16T10:57:21.253Z,14972.00
2022-08-16T10:58:20.292Z,48256.00
2022-08-16T10:59:45.125Z,67296.00
2022-08-16T11:00:22.793Z,72128.00
2022-08-16T11:01:43.338Z,68768.00
2022-08-16T11:02:59.422Z,55328.00
2022-08-16T11:05:05.639Z,46400.00
2022-08-16T11:05:21.154Z,77696.00
2022-08-16T11:06:21.521Z,80352.00
2022-08-16T11:08:23.610Z,79360.00
2022-08-16T11:09:25.810Z,82336.00
2022-08-16T11:11:01.558Z,79360.00
2022-08-16T11:11:20.793Z,78720.00
2022-08-16T11:12:19.765Z,78272.00
2022-08-16T11:14:20.675Z,53312.00
2022-08-16T11:15:19.676Z,43168.00
2022-08-16T11:16:27.579Z,17472.00
2022-08-16T11:17:20.616Z,36736.00
2022-08-16T11:19:03.061Z,58880.00
2022-08-16T11:19:20.531Z,72480.00
2022-08-16T11:21:28.490Z,15180.00
2022-08-16T11:22:38.771Z,13456.00
2022-08-16T11:23:20.357Z,13380.00
2022-08-16T11:24:40.169Z,14460.00
2022-08-16T11:26:24.012Z,50016.00
2022-08-16T11:27:20.345Z,18176.00
2022-08-16T11:29:20.088Z,75392.00
2022-08-16T11:30:19.892Z,77760.00
2022-08-16T11:31:20.078Z,74912.00
2022-08-16T11:32:20.207Z,73728.00
2022-08-16T11:33:19.025Z,77632.00
2022-08-16T11:34:19.795Z,76736.00
2022-08-16T11:35:19.054Z,79168.00
2022-08-16T11:36:27.420Z,70816.00
2022-08-16T11:37:27.186Z,79840.00
2022-08-16T11:38:23.453Z,75008.00
2022-08-16T11:39:19.733Z,77920.00
2022-08-16T11:40:19.581Z,75872.00
2022-08-16T11:41:18.587Z,75712.00
2022-08-16T11:42:23.210Z,76000.00
2022-08-16T11:43:19.544Z,76640.00
2022-08-16T11:44:20.483Z,73216.00
2022-08-16T11:45:19.483Z,70752.00
2022-08-16T11:46:43.414Z,72160.00
2022-08-16T11:47:19.409Z,72192.00
2022-08-16T11:48:18.400Z,74016.00
2022-08-16T11:49:18.378Z,72096.00
2022-08-16T11:50:18.379Z,25856.00
2022-08-16T11:51:18.357Z,72864.00
2022-08-16T11:52:18.347Z,58496.00
2022-08-16T11:53:18.268Z,20480.00
2022-08-16T11:54:21.378Z,62752.00
2022-08-16T11:55:18.233Z,12296.00
2022-08-16T11:56:28.587Z,11712.00
2022-08-16T11:57:19.218Z,12040.00
2022-08-16T11:58:18.221Z,12660.00
2022-08-16T11:59:18.212Z,13632.00
2022-08-16T12:00:49.657Z,15976.00
2022-08-16T12:01:19.257Z,20192.00
2022-08-16T12:02:32.569Z,20128.00
2022-08-16T12:03:19.175Z,19008.00
2022-08-16T12:04:18.223Z,17952.00
2022-08-16T12:05:18.145Z,17120.00
2022-08-16T12:06:25.007Z,14164.00
2022-08-16T12:07:19.098Z,14108.00
2022-08-16T12:08:18.172Z,13304.00
2022-08-16T12:09:18.112Z,15132.00
2022-08-16T12:10:18.126Z,15360.00
2022-08-16T12:11:18.128Z,15488.00
2022-08-16T12:12:18.618Z,15040.00
2022-08-16T12:13:18.157Z,14880.00
2022-08-16T12:14:18.153Z,14720.00
2022-08-16T12:15:18.178Z,14320.00
2022-08-16T12:16:20.640Z,14912.00
2022-08-16T12:17:18.148Z,14616.00
2022-08-16T12:18:20.611Z,13980.00
2022-08-16T12:19:18.152Z,13828.00
2022-08-16T12:20:18.668Z,15872.00
2022-08-16T12:21:18.103Z,18944.00
2022-08-16T12:22:19.381Z,17952.00
2022-08-16T12:23:18.151Z,16704.00
2022-08-16T12:24:18.168Z,51776.00
2022-08-16T12:25:18.190Z,65408.00
2022-08-16T12:26:18.207Z,20512.00
2022-08-16T12:27:18.222Z,62912.00
2022-08-16T12:28:36.688Z,68128.00